sensor_id;sensor_type;location;lat;lon;timestamp;P1;durP1;ratioP1;P2;durP2;ratioP2
65855;SDS011;52631;42.208;24.656;2023-02-11T00:03:56;29.35;;;10.00;;
65855;SDS011;52631;42.208;24.656;2023-02-11T00:06:22;20.80;;;9.20;;
65855;SDS011;52631;42.208;24.656;2023-02-11T00:08:49;19.50;;;9.30;;
65855;SDS011;52631;42.208;24.656;2023-02-11T00:11:15;20.30;;;9.13;;
65855;SDS011;52631;42.208;24.656;2023-02-11T00:13:42;23.42;;;8.82;;
65855;SDS011;52631;42.208;24.656;2023-02-11T00:16:09;21.38;;;9.52;;
65855;SDS011;52631;42.208;24.656;2023-02-11T00:18:36;24.02;;;10.10;;
65855;SDS011;52631;42.208;24.656;2023-02-11T00:21:21;36.60;;;12.27;;
65855;SDS011;52631;42.208;24.656;2023-02-11T00:23:48;31.63;;;13.27;;
65855;SDS011;52631;42.208;24.656;2023-02-11T00:26:18;24.05;;;9.30;;
65855;SDS011;52631;42.208;24.656;2023-02-11T00:28:49;28.67;;;10.68;;
65855;SDS011;52631;42.208;24.656;2023-02-11T00:31:16;28.45;;;11.77;;
65855;SDS011;52631;42.208;24.656;2023-02-11T00:33:42;34.10;;;11.98;;
65855;SDS011;52631;42.208;24.656;2023-02-11T00:36:29;28.42;;;11.38;;
65855;SDS011;52631;42.208;24.656;2023-02-11T00:38:55;22.02;;;10.13;;
65855;SDS011;52631;42.208;24.656;2023-02-11T00:41:21;24.10;;;9.63;;
65855;SDS011;52631;42.208;24.656;2023-02-11T00:43:47;16.48;;;8.10;;
65855;SDS011;52631;42.208;24.656;2023-02-11T00:46:12;18.67;;;7.40;;
65855;SDS011;52631;42.208;24.656;2023-02-11T00:48:39;20.90;;;9.02;;
65855;SDS011;52631;42.208;24.656;2023-02-11T00:54:27;16.20;;;6.90;;
65855;SDS011;52631;42.208;24.656;2023-02-11T00:56:53;19.83;;;9.20;;
65855;SDS011;52631;42.208;24.656;2023-02-11T00:59:18;27.98;;;10.10;;
65855;SDS011;52631;42.208;24.656;2023-02-11T01:01:44;25.88;;;9.75;;
65855;SDS011;52631;42.208;24.656;2023-02-11T01:04:09;19.35;;;9.52;;
65855;SDS011;52631;42.208;24.656;2023-02-11T01:06:35;19.33;;;8.63;;
65855;SDS011;52631;42.208;24.656;2023-02-11T01:09:00;23.83;;;10.23;;
65855;SDS011;52631;42.208;24.656;2023-02-11T01:11:26;20.77;;;9.50;;
65855;SDS011;52631;42.208;24.656;2023-02-11T01:13:51;27.20;;;10.40;;
65855;SDS011;52631;42.208;24.656;2023-02-11T01:16:17;24.35;;;10.23;;
65855;SDS011;52631;42.208;24.656;2023-02-11T01:18:44;23.42;;;9.57;;
65855;SDS011;52631;42.208;24.656;2023-02-11T01:21:10;26.02;;;10.38;;
65855;SDS011;52631;42.208;24.656;2023-02-11T01:23:35;30.52;;;9.32;;
65855;SDS011;52631;42.208;24.656;2023-02-11T01:26:01;16.70;;;7.43;;
65855;SDS011;52631;42.208;24.656;2023-02-11T01:28:28;22.10;;;9.23;;
65855;SDS011;52631;42.208;24.656;2023-02-11T01:30:54;15.93;;;7.55;;
65855;SDS011;52631;42.208;24.656;2023-02-11T01:33:20;21.25;;;8.15;;
65855;SDS011;52631;42.208;24.656;2023-02-11T01:35:46;19.50;;;9.00;;
65855;SDS011;52631;42.208;24.656;2023-02-11T01:38:16;16.90;;;7.47;;
65855;SDS011;52631;42.208;24.656;2023-02-11T01:41:03;19.60;;;8.48;;
65855;SDS011;52631;42.208;24.656;2023-02-11T01:43:34;22.17;;;9.48;;
65855;SDS011;52631;42.208;24.656;2023-02-11T01:49:02;11.25;;;4.55;;
65855;SDS011;52631;42.208;24.656;2023-02-11T01:51:35;11.80;;;6.28;;
65855;SDS011;52631;42.208;24.656;2023-02-11T01:54:03;9.48;;;3.97;;
65855;SDS011;52631;42.208;24.656;2023-02-11T01:56:48;13.55;;;5.18;;
65855;SDS011;52631;42.208;24.656;2023-02-11T01:59:40;9.15;;;4.75;;
65855;SDS011;52631;42.208;24.656;2023-02-11T02:02:11;12.90;;;4.68;;
65855;SDS011;52631;42.208;24.656;2023-02-11T02:04:40;10.93;;;4.75;;
65855;SDS011;52631;42.208;24.656;2023-02-11T02:07:18;15.02;;;7.00;;
65855;SDS011;52631;42.208;24.656;2023-02-11T02:10:00;17.67;;;6.85;;
65855;SDS011;52631;42.208;24.656;2023-02-11T02:12:28;17.42;;;7.13;;
65855;SDS011;52631;42.208;24.656;2023-02-11T02:33:52;16.23;;;6.80;;
65855;SDS011;52631;42.208;24.656;2023-02-11T02:39:16;20.73;;;9.05;;
65855;SDS011;52631;42.208;24.656;2023-02-11T02:41:44;10.30;;;5.40;;
65855;SDS011;52631;42.208;24.656;2023-02-11T02:44:10;15.13;;;7.18;;
65855;SDS011;52631;42.208;24.656;2023-02-11T02:46:36;7.07;;;4.20;;
65855;SDS011;52631;42.208;24.656;2023-02-11T02:49:01;19.70;;;7.78;;
65855;SDS011;52631;42.208;24.656;2023-02-11T03:10:06;20.70;;;8.52;;
65855;SDS011;52631;42.208;24.656;2023-02-11T03:12:36;17.02;;;7.82;;
65855;SDS011;52631;42.208;24.656;2023-02-11T03:15:02;19.45;;;9.05;;
65855;SDS011;52631;42.208;24.656;2023-02-11T03:17:29;21.38;;;8.02;;
65855;SDS011;52631;42.208;24.656;2023-02-11T03:19:58;18.50;;;8.77;;
65855;SDS011;52631;42.208;24.656;2023-02-11T03:22:24;12.50;;;7.38;;
65855;SDS011;52631;42.208;24.656;2023-02-11T03:24:52;18.73;;;7.80;;
65855;SDS011;52631;42.208;24.656;2023-02-11T03:27:19;22.30;;;7.97;;
65855;SDS011;52631;42.208;24.656;2023-02-11T03:32:31;12.38;;;5.90;;
65855;SDS011;52631;42.208;24.656;2023-02-11T03:35:23;17.63;;;6.35;;
65855;SDS011;52631;42.208;24.656;2023-02-11T03:38:15;19.27;;;7.68;;
65855;SDS011;52631;42.208;24.656;2023-02-11T03:40:44;13.15;;;6.90;;
65855;SDS011;52631;42.208;24.656;2023-02-11T03:43:20;10.68;;;5.45;;
65855;SDS011;52631;42.208;24.656;2023-02-11T03:45:47;12.80;;;6.35;;
65855;SDS011;52631;42.208;24.656;2023-02-11T03:48:15;14.23;;;6.25;;
65855;SDS011;52631;42.208;24.656;2023-02-11T03:50:41;16.35;;;7.00;;
65855;SDS011;52631;42.208;24.656;2023-02-11T03:53:08;22.73;;;7.38;;
65855;SDS011;52631;42.208;24.656;2023-02-11T03:55:35;14.95;;;6.60;;
65855;SDS011;52631;42.208;24.656;2023-02-11T03:58:02;11.57;;;6.32;;
65855;SDS011;52631;42.208;24.656;2023-02-11T04:00:32;18.50;;;6.25;;
65855;SDS011;52631;42.208;24.656;2023-02-11T04:03:00;17.35;;;7.78;;
65855;SDS011;52631;42.208;24.656;2023-02-11T04:05:26;24.80;;;9.95;;
65855;SDS011;52631;42.208;24.656;2023-02-11T04:07:52;22.40;;;8.88;;
65855;SDS011;52631;42.208;24.656;2023-02-11T04:10:17;17.88;;;7.93;;
65855;SDS011;52631;42.208;24.656;2023-02-11T04:12:43;14.73;;;6.35;;
65855;SDS011;52631;42.208;24.656;2023-02-11T04:15:08;19.27;;;8.40;;
65855;SDS011;52631;42.208;24.656;2023-02-11T04:17:34;17.77;;;8.60;;
65855;SDS011;52631;42.208;24.656;2023-02-11T04:19:59;14.25;;;7.88;;
65855;SDS011;52631;42.208;24.656;2023-02-11T04:22:25;20.02;;;8.60;;
65855;SDS011;52631;42.208;24.656;2023-02-11T04:24:50;15.13;;;6.97;;
65855;SDS011;52631;42.208;24.656;2023-02-11T04:27:16;21.10;;;9.27;;
65855;SDS011;52631;42.208;24.656;2023-02-11T04:29:41;20.95;;;10.25;;
65855;SDS011;52631;42.208;24.656;2023-02-11T04:32:07;18.15;;;8.18;;
65855;SDS011;52631;42.208;24.656;2023-02-11T04:34:33;21.75;;;9.40;;
65855;SDS011;52631;42.208;24.656;2023-02-11T04:36:58;23.15;;;10.15;;
65855;SDS011;52631;42.208;24.656;2023-02-11T04:39:24;21.17;;;10.20;;
65855;SDS011;52631;42.208;24.656;2023-02-11T04:41:49;25.42;;;11.13;;
65855;SDS011;52631;42.208;24.656;2023-02-11T04:44:15;17.17;;;9.80;;
65855;SDS011;52631;42.208;24.656;2023-02-11T04:46:40;9.77;;;5.78;;
65855;SDS011;52631;42.208;24.656;2023-02-11T04:49:06;29.20;;;14.85;;
65855;SDS011;52631;42.208;24.656;2023-02-11T04:51:31;57.17;;;21.13;;
65855;SDS011;52631;42.208;24.656;2023-02-11T04:53:57;41.67;;;17.42;;
65855;SDS011;52631;42.208;24.656;2023-02-11T04:56:22;29.00;;;11.55;;
65855;SDS011;52631;42.208;24.656;2023-02-11T04:58:48;31.75;;;13.93;;
65855;SDS011;52631;42.208;24.656;2023-02-11T05:01:14;36.50;;;15.90;;
65855;SDS011;52631;42.208;24.656;2023-02-11T05:03:40;35.88;;;14.63;;
65855;SDS011;52631;42.208;24.656;2023-02-11T05:06:06;71.13;;;28.65;;
65855;SDS011;52631;42.208;24.656;2023-02-11T05:08:31;27.08;;;13.23;;
65855;SDS011;52631;42.208;24.656;2023-02-11T05:10:57;15.75;;;7.20;;
65855;SDS011;52631;42.208;24.656;2023-02-11T05:13:23;11.82;;;6.03;;
65855;SDS011;52631;42.208;24.656;2023-02-11T05:15:48;12.80;;;5.55;;
65855;SDS011;52631;42.208;24.656;2023-02-11T05:18:14;3.65;;;2.95;;
65855;SDS011;52631;42.208;24.656;2023-02-11T05:20:40;6.20;;;3.95;;
65855;SDS011;52631;42.208;24.656;2023-02-11T05:23:06;7.95;;;4.18;;
65855;SDS011;52631;42.208;24.656;2023-02-11T05:25:32;7.85;;;4.72;;
65855;SDS011;52631;42.208;24.656;2023-02-11T05:27:57;4.20;;;2.35;;
65855;SDS011;52631;42.208;24.656;2023-02-11T05:30:23;3.22;;;2.50;;
65855;SDS011;52631;42.208;24.656;2023-02-11T05:32:48;10.15;;;5.22;;
65855;SDS011;52631;42.208;24.656;2023-02-11T05:35:14;8.27;;;4.75;;
65855;SDS011;52631;42.208;24.656;2023-02-11T05:37:39;9.23;;;5.38;;
65855;SDS011;52631;42.208;24.656;2023-02-11T05:40:05;8.25;;;4.63;;
65855;SDS011;52631;42.208;24.656;2023-02-11T05:42:30;20.13;;;11.88;;
65855;SDS011;52631;42.208;24.656;2023-02-11T05:44:56;13.60;;;7.68;;
65855;SDS011;52631;42.208;24.656;2023-02-11T05:47:21;11.02;;;5.60;;
65855;SDS011;52631;42.208;24.656;2023-02-11T05:49:47;3.75;;;2.78;;
65855;SDS011;52631;42.208;24.656;2023-02-11T05:52:12;8.13;;;5.28;;
65855;SDS011;52631;42.208;24.656;2023-02-11T05:54:38;18.00;;;8.93;;
65855;SDS011;52631;42.208;24.656;2023-02-11T05:57:03;13.70;;;5.53;;
65855;SDS011;52631;42.208;24.656;2023-02-11T05:59:29;17.13;;;7.65;;
65855;SDS011;52631;42.208;24.656;2023-02-11T06:01:54;10.85;;;5.20;;
65855;SDS011;52631;42.208;24.656;2023-02-11T06:04:20;13.55;;;7.20;;
65855;SDS011;52631;42.208;24.656;2023-02-11T06:06:45;21.85;;;7.60;;
65855;SDS011;52631;42.208;24.656;2023-02-11T06:09:11;6.53;;;4.22;;
65855;SDS011;52631;42.208;24.656;2023-02-11T06:11:36;14.10;;;6.03;;
65855;SDS011;52631;42.208;24.656;2023-02-11T06:14:02;11.50;;;4.30;;
65855;SDS011;52631;42.208;24.656;2023-02-11T06:16:28;8.50;;;5.03;;
65855;SDS011;52631;42.208;24.656;2023-02-11T06:18:53;7.85;;;4.57;;
65855;SDS011;52631;42.208;24.656;2023-02-11T06:21:18;17.42;;;9.70;;
65855;SDS011;52631;42.208;24.656;2023-02-11T06:23:44;24.83;;;13.50;;
65855;SDS011;52631;42.208;24.656;2023-02-11T06:26:15;16.27;;;8.38;;
65855;SDS011;52631;42.208;24.656;2023-02-11T06:28:42;14.82;;;6.93;;
65855;SDS011;52631;42.208;24.656;2023-02-11T06:31:08;18.48;;;8.60;;
65855;SDS011;52631;42.208;24.656;2023-02-11T06:33:34;22.05;;;9.27;;
65855;SDS011;52631;42.208;24.656;2023-02-11T06:36:00;11.48;;;6.43;;
65855;SDS011;52631;42.208;24.656;2023-02-11T06:38:26;13.18;;;6.10;;
65855;SDS011;52631;42.208;24.656;2023-02-11T06:40:51;17.77;;;8.38;;
65855;SDS011;52631;42.208;24.656;2023-02-11T06:43:16;18.10;;;8.20;;
65855;SDS011;52631;42.208;24.656;2023-02-11T06:45:42;21.10;;;9.80;;
65855;SDS011;52631;42.208;24.656;2023-02-11T06:48:08;29.40;;;15.07;;
65855;SDS011;52631;42.208;24.656;2023-02-11T06:50:33;23.67;;;11.70;;
65855;SDS011;52631;42.208;24.656;2023-02-11T06:52:59;22.27;;;10.02;;
65855;SDS011;52631;42.208;24.656;2023-02-11T06:55:25;26.77;;;9.85;;
65855;SDS011;52631;42.208;24.656;2023-02-11T06:57:50;17.95;;;8.07;;
65855;SDS011;52631;42.208;24.656;2023-02-11T07:00:16;16.77;;;8.35;;
65855;SDS011;52631;42.208;24.656;2023-02-11T07:02:42;21.70;;;9.10;;
65855;SDS011;52631;42.208;24.656;2023-02-11T07:05:07;19.15;;;8.77;;
65855;SDS011;52631;42.208;24.656;2023-02-11T07:07:33;21.80;;;10.70;;
65855;SDS011;52631;42.208;24.656;2023-02-11T07:09:59;24.85;;;12.32;;
65855;SDS011;52631;42.208;24.656;2023-02-11T07:12:24;24.30;;;10.40;;
65855;SDS011;52631;42.208;24.656;2023-02-11T07:14:50;27.67;;;10.73;;
65855;SDS011;52631;42.208;24.656;2023-02-11T07:17:16;28.33;;;11.00;;
65855;SDS011;52631;42.208;24.656;2023-02-11T07:19:42;22.70;;;11.65;;
65855;SDS011;52631;42.208;24.656;2023-02-11T07:22:07;11.77;;;6.30;;
65855;SDS011;52631;42.208;24.656;2023-02-11T07:24:33;18.17;;;8.18;;
65855;SDS011;52631;42.208;24.656;2023-02-11T07:26:59;25.00;;;10.57;;
65855;SDS011;52631;42.208;24.656;2023-02-11T07:29:24;22.30;;;9.65;;
65855;SDS011;52631;42.208;24.656;2023-02-11T07:31:50;20.17;;;8.95;;
65855;SDS011;52631;42.208;24.656;2023-02-11T07:34:15;18.75;;;9.25;;
65855;SDS011;52631;42.208;24.656;2023-02-11T07:36:41;17.70;;;7.68;;
65855;SDS011;52631;42.208;24.656;2023-02-11T07:39:09;21.88;;;8.68;;
65855;SDS011;52631;42.208;24.656;2023-02-11T07:41:35;18.48;;;9.68;;
65855;SDS011;52631;42.208;24.656;2023-02-11T07:44:01;21.92;;;10.05;;
65855;SDS011;52631;42.208;24.656;2023-02-11T07:46:27;18.90;;;9.77;;
65855;SDS011;52631;42.208;24.656;2023-02-11T07:48:53;15.43;;;6.95;;
65855;SDS011;52631;42.208;24.656;2023-02-11T07:51:29;20.95;;;9.55;;
65855;SDS011;52631;42.208;24.656;2023-02-11T07:53:57;22.63;;;11.77;;
65855;SDS011;52631;42.208;24.656;2023-02-11T07:56:23;25.45;;;10.88;;
65855;SDS011;52631;42.208;24.656;2023-02-11T07:58:49;20.15;;;8.63;;
65855;SDS011;52631;42.208;24.656;2023-02-11T08:01:17;26.08;;;10.57;;
65855;SDS011;52631;42.208;24.656;2023-02-11T08:03:43;23.67;;;10.60;;
65855;SDS011;52631;42.208;24.656;2023-02-11T08:06:10;14.65;;;7.97;;
65855;SDS011;52631;42.208;24.656;2023-02-11T08:08:37;21.13;;;9.30;;
65855;SDS011;52631;42.208;24.656;2023-02-11T08:11:09;18.88;;;8.32;;
65855;SDS011;52631;42.208;24.656;2023-02-11T08:13:45;22.83;;;10.13;;
65855;SDS011;52631;42.208;24.656;2023-02-11T08:16:18;17.88;;;9.48;;
65855;SDS011;52631;42.208;24.656;2023-02-11T08:18:43;14.02;;;6.60;;
65855;SDS011;52631;42.208;24.656;2023-02-11T08:21:09;21.48;;;10.05;;
65855;SDS011;52631;42.208;24.656;2023-02-11T08:23:37;21.73;;;9.65;;
65855;SDS011;52631;42.208;24.656;2023-02-11T08:26:03;22.40;;;10.90;;
65855;SDS011;52631;42.208;24.656;2023-02-11T08:28:40;20.25;;;8.70;;
65855;SDS011;52631;42.208;24.656;2023-02-11T08:31:10;18.05;;;9.52;;
65855;SDS011;52631;42.208;24.656;2023-02-11T08:33:37;19.58;;;9.15;;
65855;SDS011;52631;42.208;24.656;2023-02-11T08:36:23;21.55;;;9.95;;
65855;SDS011;52631;42.208;24.656;2023-02-11T08:38:56;19.98;;;9.55;;
65855;SDS011;52631;42.208;24.656;2023-02-11T08:41:23;22.53;;;10.10;;
65855;SDS011;52631;42.208;24.656;2023-02-11T08:43:49;14.45;;;7.78;;
65855;SDS011;52631;42.208;24.656;2023-02-11T08:46:16;14.18;;;7.15;;
65855;SDS011;52631;42.208;24.656;2023-02-11T08:48:44;19.80;;;9.00;;
65855;SDS011;52631;42.208;24.656;2023-02-11T08:51:17;20.50;;;9.20;;
65855;SDS011;52631;42.208;24.656;2023-02-11T08:53:45;10.05;;;5.43;;
65855;SDS011;52631;42.208;24.656;2023-02-11T08:56:11;22.15;;;9.30;;
65855;SDS011;52631;42.208;24.656;2023-02-11T08:58:37;15.73;;;8.48;;
65855;SDS011;52631;42.208;24.656;2023-02-11T09:01:13;18.38;;;9.40;;
65855;SDS011;52631;42.208;24.656;2023-02-11T09:03:42;21.27;;;8.23;;
65855;SDS011;52631;42.208;24.656;2023-02-11T09:06:09;16.10;;;8.27;;
65855;SDS011;52631;42.208;24.656;2023-02-11T09:08:35;16.90;;;8.18;;
65855;SDS011;52631;42.208;24.656;2023-02-11T09:11:02;12.82;;;6.97;;
65855;SDS011;52631;42.208;24.656;2023-02-11T09:13:28;18.35;;;8.38;;
65855;SDS011;52631;42.208;24.656;2023-02-11T09:15:54;15.98;;;8.13;;
65855;SDS011;52631;42.208;24.656;2023-02-11T09:18:20;15.30;;;6.82;;
65855;SDS011;52631;42.208;24.656;2023-02-11T09:20:45;16.42;;;6.95;;
65855;SDS011;52631;42.208;24.656;2023-02-11T09:23:11;10.43;;;6.10;;
65855;SDS011;52631;42.208;24.656;2023-02-11T09:25:39;13.13;;;5.70;;
65855;SDS011;52631;42.208;24.656;2023-02-11T09:28:05;11.85;;;5.40;;
65855;SDS011;52631;42.208;24.656;2023-02-11T09:30:31;15.88;;;5.97;;
65855;SDS011;52631;42.208;24.656;2023-02-11T09:32:56;10.60;;;6.03;;
65855;SDS011;52631;42.208;24.656;2023-02-11T09:35:22;14.65;;;7.30;;
65855;SDS011;52631;42.208;24.656;2023-02-11T09:37:47;14.20;;;6.22;;
65855;SDS011;52631;42.208;24.656;2023-02-11T09:40:13;16.45;;;7.93;;
65855;SDS011;52631;42.208;24.656;2023-02-11T09:42:44;13.05;;;7.30;;
65855;SDS011;52631;42.208;24.656;2023-02-11T09:45:14;12.75;;;6.22;;
65855;SDS011;52631;42.208;24.656;2023-02-11T09:50:31;11.35;;;5.95;;
65855;SDS011;52631;42.208;24.656;2023-02-11T09:55:38;14.15;;;6.68;;
65855;SDS011;52631;42.208;24.656;2023-02-11T09:58:13;13.68;;;7.32;;
65855;SDS011;52631;42.208;24.656;2023-02-11T10:06:24;16.17;;;7.80;;
65855;SDS011;52631;42.208;24.656;2023-02-11T10:17:19;9.80;;;5.05;;
65855;SDS011;52631;42.208;24.656;2023-02-11T10:23:00;13.57;;;6.70;;
65855;SDS011;52631;42.208;24.656;2023-02-11T10:25:34;11.98;;;5.40;;
65855;SDS011;52631;42.208;24.656;2023-02-11T10:28:13;13.85;;;8.00;;
65855;SDS011;52631;42.208;24.656;2023-02-11T10:30:44;8.43;;;5.03;;
65855;SDS011;52631;42.208;24.656;2023-02-11T10:34:03;15.52;;;7.22;;
65855;SDS011;52631;42.208;24.656;2023-02-11T10:36:05;13.88;;;7.32;;
65855;SDS011;52631;42.208;24.656;2023-02-11T10:38:31;14.48;;;5.90;;
65855;SDS011;52631;42.208;24.656;2023-02-11T10:40:57;15.88;;;6.72;;
65855;SDS011;52631;42.208;24.656;2023-02-11T10:43:24;11.57;;;5.30;;
65855;SDS011;52631;42.208;24.656;2023-02-11T10:45:52;12.60;;;5.72;;
65855;SDS011;52631;42.208;24.656;2023-02-11T10:56:30;12.45;;;6.47;;
65855;SDS011;52631;42.208;24.656;2023-02-11T10:59:11;15.98;;;7.47;;
65855;SDS011;52631;42.208;24.656;2023-02-11T11:02:04;11.38;;;4.53;;
65855;SDS011;52631;42.208;24.656;2023-02-11T11:04:43;14.35;;;6.35;;
65855;SDS011;52631;42.208;24.656;2023-02-11T11:07:22;12.65;;;6.35;;
65855;SDS011;52631;42.208;24.656;2023-02-11T11:12:25;10.63;;;5.40;;
65855;SDS011;52631;42.208;24.656;2023-02-11T11:14:53;12.77;;;5.57;;
65855;SDS011;52631;42.208;24.656;2023-02-11T11:17:21;12.60;;;6.72;;
65855;SDS011;52631;42.208;24.656;2023-02-11T11:19:46;12.07;;;5.60;;
65855;SDS011;52631;42.208;24.656;2023-02-11T11:22:19;10.02;;;4.97;;
65855;SDS011;52631;42.208;24.656;2023-02-11T11:24:45;11.18;;;6.18;;
65855;SDS011;52631;42.208;24.656;2023-02-11T11:27:18;14.30;;;6.40;;
65855;SDS011;52631;42.208;24.656;2023-02-11T11:29:48;10.70;;;5.50;;
65855;SDS011;52631;42.208;24.656;2023-02-11T11:34:59;10.50;;;5.20;;
65855;SDS011;52631;42.208;24.656;2023-02-11T11:37:37;13.32;;;6.43;;
65855;SDS011;52631;42.208;24.656;2023-02-11T11:40:19;14.20;;;6.65;;
65855;SDS011;52631;42.208;24.656;2023-02-11T11:42:46;12.10;;;6.45;;
65855;SDS011;52631;42.208;24.656;2023-02-11T11:45:29;20.25;;;8.48;;
65855;SDS011;52631;42.208;24.656;2023-02-11T11:48:00;13.90;;;7.97;;
65855;SDS011;52631;42.208;24.656;2023-02-11T11:55:44;11.35;;;6.63;;
65855;SDS011;52631;42.208;24.656;2023-02-11T11:58:16;13.25;;;6.15;;
65855;SDS011;52631;42.208;24.656;2023-02-11T12:19:53;10.73;;;5.45;;
65855;SDS011;52631;42.208;24.656;2023-02-11T12:25:27;12.05;;;6.07;;
65855;SDS011;52631;42.208;24.656;2023-02-11T12:33:24;11.55;;;5.53;;
65855;SDS011;52631;42.208;24.656;2023-02-11T12:39:26;14.48;;;6.18;;
65855;SDS011;52631;42.208;24.656;2023-02-11T12:50:57;13.73;;;5.60;;
65855;SDS011;52631;42.208;24.656;2023-02-11T12:56:26;14.07;;;6.15;;
65855;SDS011;52631;42.208;24.656;2023-02-11T13:01:57;10.73;;;5.95;;
65855;SDS011;52631;42.208;24.656;2023-02-11T13:04:37;12.52;;;6.13;;
65855;SDS011;52631;42.208;24.656;2023-02-11T13:07:13;10.15;;;6.00;;
65855;SDS011;52631;42.208;24.656;2023-02-11T13:09:42;13.38;;;6.45;;
65855;SDS011;52631;42.208;24.656;2023-02-11T13:12:11;11.05;;;6.07;;
65855;SDS011;52631;42.208;24.656;2023-02-11T13:14:57;17.42;;;7.53;;
65855;SDS011;52631;42.208;24.656;2023-02-11T13:17:28;12.45;;;6.70;;
65855;SDS011;52631;42.208;24.656;2023-02-11T13:20:35;15.05;;;7.50;;
65855;SDS011;52631;42.208;24.656;2023-02-11T13:23:06;14.45;;;6.75;;
65855;SDS011;52631;42.208;24.656;2023-02-11T13:25:43;13.90;;;7.10;;
65855;SDS011;52631;42.208;24.656;2023-02-11T13:31:18;10.73;;;6.35;;
65855;SDS011;52631;42.208;24.656;2023-02-11T13:33:44;12.95;;;6.20;;
65855;SDS011;52631;42.208;24.656;2023-02-11T13:36:14;16.75;;;6.60;;
65855;SDS011;52631;42.208;24.656;2023-02-11T13:38:49;12.15;;;5.88;;
65855;SDS011;52631;42.208;24.656;2023-02-11T13:43:41;12.75;;;6.25;;
65855;SDS011;52631;42.208;24.656;2023-02-11T13:46:08;24.08;;;10.45;;
65855;SDS011;52631;42.208;24.656;2023-02-11T13:48:36;14.10;;;6.65;;
65855;SDS011;52631;42.208;24.656;2023-02-11T13:51:05;13.27;;;6.70;;
65855;SDS011;52631;42.208;24.656;2023-02-11T13:53:43;11.98;;;5.72;;
65855;SDS011;52631;42.208;24.656;2023-02-11T13:56:21;12.10;;;5.93;;
65855;SDS011;52631;42.208;24.656;2023-02-11T13:58:48;20.75;;;7.68;;
65855;SDS011;52631;42.208;24.656;2023-02-11T14:01:37;12.65;;;6.20;;
65855;SDS011;52631;42.208;24.656;2023-02-11T14:05:24;13.38;;;6.47;;
65855;SDS011;52631;42.208;24.656;2023-02-11T14:11:05;19.23;;;10.43;;
65855;SDS011;52631;42.208;24.656;2023-02-11T14:16:18;17.70;;;7.43;;
65855;SDS011;52631;42.208;24.656;2023-02-11T14:21:18;13.82;;;7.18;;
65855;SDS011;52631;42.208;24.656;2023-02-11T14:23:47;12.98;;;6.50;;
65855;SDS011;52631;42.208;24.656;2023-02-11T14:43:06;26.75;;;10.00;;
65855;SDS011;52631;42.208;24.656;2023-02-11T14:45:37;15.15;;;8.23;;
65855;SDS011;52631;42.208;24.656;2023-02-11T14:50:33;67.10;;;28.30;;
65855;SDS011;52631;42.208;24.656;2023-02-11T14:53:06;41.25;;;19.25;;
65855;SDS011;52631;42.208;24.656;2023-02-11T14:55:35;40.30;;;22.08;;
65855;SDS011;52631;42.208;24.656;2023-02-11T14:58:04;25.42;;;13.23;;
65855;SDS011;52631;42.208;24.656;2023-02-11T15:01:26;20.60;;;9.23;;
65855;SDS011;52631;42.208;24.656;2023-02-11T15:03:47;16.10;;;8.15;;
65855;SDS011;52631;42.208;24.656;2023-02-11T15:08:44;21.73;;;11.30;;
65855;SDS011;52631;42.208;24.656;2023-02-11T15:11:13;13.25;;;7.03;;
65855;SDS011;52631;42.208;24.656;2023-02-11T15:13:40;16.20;;;6.65;;
65855;SDS011;52631;42.208;24.656;2023-02-11T15:16:14;16.98;;;8.10;;
65855;SDS011;52631;42.208;24.656;2023-02-11T15:19:05;15.05;;;6.57;;
65855;SDS011;52631;42.208;24.656;2023-02-11T15:21:30;16.63;;;6.88;;
65855;SDS011;52631;42.208;24.656;2023-02-11T15:23:58;14.10;;;7.15;;
65855;SDS011;52631;42.208;24.656;2023-02-11T15:26:30;13.93;;;7.70;;
65855;SDS011;52631;42.208;24.656;2023-02-11T15:28:56;15.38;;;7.53;;
65855;SDS011;52631;42.208;24.656;2023-02-11T15:31:22;14.13;;;6.47;;
65855;SDS011;52631;42.208;24.656;2023-02-11T15:33:49;16.40;;;7.10;;
65855;SDS011;52631;42.208;24.656;2023-02-11T15:36:16;11.20;;;6.45;;
65855;SDS011;52631;42.208;24.656;2023-02-11T15:38:42;27.55;;;8.52;;
65855;SDS011;52631;42.208;24.656;2023-02-11T15:41:26;17.00;;;5.95;;
65855;SDS011;52631;42.208;24.656;2023-02-11T15:44:02;17.73;;;7.43;;
65855;SDS011;52631;42.208;24.656;2023-02-11T15:46:31;13.18;;;7.10;;
65855;SDS011;52631;42.208;24.656;2023-02-11T15:49:02;11.82;;;6.90;;
65855;SDS011;52631;42.208;24.656;2023-02-11T15:51:30;15.70;;;6.90;;
65855;SDS011;52631;42.208;24.656;2023-02-11T15:54:04;12.30;;;6.47;;
65855;SDS011;52631;42.208;24.656;2023-02-11T15:56:37;12.05;;;6.20;;
65855;SDS011;52631;42.208;24.656;2023-02-11T16:04:33;32.30;;;13.70;;
65855;SDS011;52631;42.208;24.656;2023-02-11T16:06:59;27.63;;;12.85;;
65855;SDS011;52631;42.208;24.656;2023-02-11T16:09:34;27.88;;;10.82;;
65855;SDS011;52631;42.208;24.656;2023-02-11T16:12:16;34.38;;;12.10;;
65855;SDS011;52631;42.208;24.656;2023-02-11T16:14:51;42.67;;;16.67;;
65855;SDS011;52631;42.208;24.656;2023-02-11T16:19:46;51.72;;;19.60;;
65855;SDS011;52631;42.208;24.656;2023-02-11T16:22:17;46.45;;;18.98;;
65855;SDS011;52631;42.208;24.656;2023-02-11T16:24:45;42.42;;;16.50;;
65855;SDS011;52631;42.208;24.656;2023-02-11T16:27:25;38.35;;;15.82;;
65855;SDS011;52631;42.208;24.656;2023-02-11T16:29:54;41.03;;;16.08;;
65855;SDS011;52631;42.208;24.656;2023-02-11T16:32:21;55.75;;;21.55;;
65855;SDS011;52631;42.208;24.656;2023-02-11T16:34:48;56.63;;;21.00;;
65855;SDS011;52631;42.208;24.656;2023-02-11T16:37:14;40.05;;;17.35;;
65855;SDS011;52631;42.208;24.656;2023-02-11T16:39:40;38.22;;;14.90;;
65855;SDS011;52631;42.208;24.656;2023-02-11T16:42:06;33.50;;;14.40;;
65855;SDS011;52631;42.208;24.656;2023-02-11T16:44:31;37.35;;;15.43;;
65855;SDS011;52631;42.208;24.656;2023-02-11T16:46:58;39.50;;;18.83;;
65855;SDS011;52631;42.208;24.656;2023-02-11T16:49:29;41.88;;;17.85;;
65855;SDS011;52631;42.208;24.656;2023-02-11T16:52:00;38.80;;;19.52;;
65855;SDS011;52631;42.208;24.656;2023-02-11T16:54:29;46.30;;;18.90;;
65855;SDS011;52631;42.208;24.656;2023-02-11T16:56:57;41.42;;;20.17;;
65855;SDS011;52631;42.208;24.656;2023-02-11T16:59:23;45.88;;;22.02;;
65855;SDS011;52631;42.208;24.656;2023-02-11T17:01:49;47.83;;;21.92;;
65855;SDS011;52631;42.208;24.656;2023-02-11T17:04:18;45.85;;;22.30;;
65855;SDS011;52631;42.208;24.656;2023-02-11T17:06:45;42.42;;;20.60;;
65855;SDS011;52631;42.208;24.656;2023-02-11T17:09:19;40.67;;;19.73;;
65855;SDS011;52631;42.208;24.656;2023-02-11T17:11:49;42.80;;;19.65;;
65855;SDS011;52631;42.208;24.656;2023-02-11T17:14:15;37.55;;;20.40;;
65855;SDS011;52631;42.208;24.656;2023-02-11T17:16:41;47.15;;;23.50;;
65855;SDS011;52631;42.208;24.656;2023-02-11T17:19:10;40.38;;;20.08;;
65855;SDS011;52631;42.208;24.656;2023-02-11T17:21:39;34.95;;;17.88;;
65855;SDS011;52631;42.208;24.656;2023-02-11T17:24:08;35.35;;;18.35;;
65855;SDS011;52631;42.208;24.656;2023-02-11T17:26:35;53.15;;;25.38;;
65855;SDS011;52631;42.208;24.656;2023-02-11T17:29:06;57.65;;;26.88;;
65855;SDS011;52631;42.208;24.656;2023-02-11T17:31:33;54.13;;;27.90;;
65855;SDS011;52631;42.208;24.656;2023-02-11T17:33:59;53.95;;;24.83;;